Terminal Aerodrome Forecast
Issued by NWS

Current Version | Previous Version | Text Only | Print | Product List | Glossary On
Versions: 1 2 3 4 5 6 7 8 9 10 11 12 13 14 15 16 17 18 19 20 21 22 23 24 25 26
873
FTUS41 KPBZ 291731
TAFAGC
TAF
KAGC 291731Z 2918/3018 28006KT P6SM OVC012
     FM300400 VRB03KT 3SM BR BKN003
     FM300900 VRB03KT 5SM BR SCT003
     FM301500 10005KT P6SM SCT040=

USA.gov is the U.S. government's official web portal to all federal, state and local government web resources and services.